Terminal Aerodrome Forecast
Issued by NWS

Home | Current Version | Previous Version | Text Only | Print | Product List | Glossary On
Versions: 1 2 3 4 5 6 7 8 9 10 11 12 13 14 15 16 17 18 19 20 21 22 23
000
FTUS41 KBGM 021100
TAFITH
TAF
KITH 021140Z 0212/0312 31011KT P6SM OVC025
     FM021400 30015G25KT P6SM -SHSN BKN025 OVC035
     FM030000 30010KT P6SM BKN040
     FM030300 31005KT P6SM SKC
     FM030900 12003KT P6SM OVC150=

USA.gov is the U.S. government's official web portal to all federal, state and local government web resources and services.